This is the latest recevied weather packets stored in our database for station/object VK3HAG. If no packets are shown the sender has not sent any weather packets the latest 10 day(s).
| Time | Temp. | Humidity | Pressure | Rain* | Wind** | Luminosity | Snow |
|---|---|---|---|---|---|---|---|
| 1777880704 | 15° C | 80% | 1008.9 hPa | 0 mm | - | - | - |
| 1777879804 | 15° C | 77% | 1008.7 hPa | 0 mm | - | - | - |
| 1777878904 | 15.56° C | 75% | 1008.7 hPa | 0 mm | - | - | - |
| 1777878004 | 15.56° C | 75% | 1008.6 hPa | 0 mm | - | - | - |
| 1777877105 | 15.56° C | 74% | 1008.5 hPa | 0 mm | - | - | - |
| 1777876205 | 16.11° C | 73% | 1008.5 hPa | 0 mm | - | - | - |
| 1777875304 | 16.67° C | 70% | 1008.3 hPa | 0 mm | - | - | - |
| 1777874405 | 16.67° C | 69% | 1008.2 hPa | 0 mm | - | - | - |
| 1777873504 | 16.67° C | 69% | 1008.2 hPa | 0 mm | - | - | - |
| 1777872604 | 16.67° C | 68% | 1008.2 hPa | 0 mm | - | - | - |
| 1777871705 | 16.67° C | 67% | 1008 hPa | 0 mm | - | - | - |
| 1777870804 | 17.22° C | 67% | 1007.9 hPa | 0 mm | - | - | - |
| 1777869904 | 17.22° C | 67% | 1008 hPa | 0 mm | - | - | - |
| 1777869005 | 17.22° C | 66% | 1008 hPa | 0 mm | - | - | - |
| 1777868104 | 18.33° C | 66% | 1007.9 hPa | 0 mm | - | - | - |
| 1777867204 | 17.22° C | 66% | 1007.9 hPa | 0 mm | - | - | - |
| 1777866304 | 17.78° C | 65% | 1008 hPa | 0 mm | - | - | - |
| 1777865404 | 17.22° C | 65% | 1008.2 hPa | 0 mm | - | - | - |
| 1777864504 | 17.22° C | 66% | 1008.5 hPa | 0 mm | - | - | - |
| 1777863605 | 17.78° C | 64% | 1008.4 hPa | 0 mm | - | - | - |
| 1777862704 | 17.78° C | 66% | 1008.5 hPa | 0 mm | - | - | - |
| 1777861804 | 17.78° C | 66% | 1008.7 hPa | 0 mm | - | - | - |
| 1777860905 | 17.22° C | 67% | 1008.9 hPa | 0 mm | - | - | - |
| 1777860004 | 17.78° C | 67% | 1009.1 hPa | 0 mm | - | - | - |
| 1777859104 | 17.22° C | 69% | 1009.4 hPa | 0 mm | - | - | - |
* Rain latest hour (hover to see other rain measurements)
** Current wind speed in m/s (hover to see current wind gust speed)